Terminal Aerodrome Forecast
Issued by NWS

Home | Current Version | Previous Version | Text Only | Print | Product List | Glossary On
Versions: 1 2 3 4 5 6 7 8 9 10 11 12 13 14 15 16 17 18 19 20 21 22 23 24 25 26 27 28 29 30 31 32 33 34 35 36 37 38 39 40 41 42 43 44 45 46 47 48 49 50
000
FTUS41 KCTP 111159
TAFBFD
TAF
KBFD 111159Z 1112/1212 20004KT 4SM -SN OVC025
     FM111300 17005KT 2SM -SN OVC010
     FM120000 16010KT 1SM -SN OVC007 WS020/20045KT
     FM121000 20010KT 3SM -PLSN OVC004=

USA.gov is the U.S. government's official web portal to all federal, state and local government web resources and services.